Time;durP1;ratioP1;P1;durP2;ratioP2;P2;SDS_P1;SDS_P2;PMS_P1;PMS_P2;Temp;Humidity;BMP_temperature;BMP_pressure;BME280_temperature;BME280_humidity;BME280_pressure;Samples;Min_cycle;Max_cycle;Signal;HPM_P1;HPM_P2
2023/07/08 00:00:55;;;;;;;6.70;5.30;;;;;;;22.14;58.45;96361.94;5095547;28;20052;-66
2023/07/08 00:03:24;;;;;;;8.70;5.20;;;;;;;22.02;57.72;96365.66;5095349;28;20070;-66
2023/07/08 00:05:55;;;;;;;8.52;5.22;;;;;;;21.93;59.04;96354.84;5095316;28;20048;-66
2023/07/08 00:08:22;;;;;;;8.65;5.43;;;;;;;21.92;58.02;96349.66;5095067;28;20101;-66
2023/07/08 00:10:50;;;;;;;6.20;4.75;;;;;;;21.84;59.58;96350.31;5095279;28;20048;-66
2023/07/08 00:13:18;;;;;;;8.20;5.65;;;;;;;21.84;58.44;96348.53;5095283;28;20048;-66
2023/07/08 00:15:45;;;;;;;12.90;5.70;;;;;;;21.83;58.77;96352.13;5095245;28;20048;-66
2023/07/08 00:18:14;;;;;;;5.80;4.97;;;;;;;21.79;58.88;96347.25;5094190;28;20490;-66
2023/07/08 00:20:46;;;;;;;6.95;5.25;;;;;;;21.74;58.64;96347.59;5095080;28;20079;-66
2023/07/08 00:23:13;;;;;;;8.38;5.25;;;;;;;21.71;58.87;96342.53;5095159;28;20051;-66
2023/07/08 00:25:41;;;;;;;9.65;5.80;;;;;;;21.73;59.18;96337.09;5094983;28;20055;-66
2023/07/08 00:28:11;;;;;;;6.88;5.50;;;;;;;21.71;59.49;96339.88;5094890;28;20414;-66
2023/07/08 00:30:38;;;;;;;9.97;4.97;;;;;;;21.68;59.64;96338.34;5094915;28;20048;-66
2023/07/08 00:33:07;;;;;;;8.40;5.15;;;;;;;21.70;59.02;96335.50;5094959;28;20040;-66
2023/07/08 00:35:37;;;;;;;8.75;5.85;;;;;;;21.69;59.35;96333.84;5095072;28;20459;-66
2023/07/08 00:38:15;;;;;;;7.70;5.38;;;;;;;21.68;59.77;96327.69;5094847;28;20048;-66
2023/07/08 00:40:52;;;;;;;10.82;5.50;;;;;;;21.65;59.78;96325.31;5094523;28;20047;-66
2023/07/08 00:43:24;;;;;;;10.48;5.13;;;;;;;21.64;58.82;96320.94;5094664;28;20077;-66
2023/07/08 00:45:54;;;;;;;10.10;5.47;;;;;;;21.64;59.51;96323.59;5094427;28;20456;-66
2023/07/08 00:48:25;;;;;;;6.25;5.00;;;;;;;21.71;59.78;96324.75;5094609;28;20043;-66
2023/07/08 00:50:52;;;;;;;;;;;;;;;21.70;59.58;96324.88;5094910;28;20055;-66
2023/07/08 00:53:29;;;;;;;9.55;4.82;;;;;;;21.62;61.15;96327.38;5094440;28;19920;-66
2023/07/08 00:56:00;;;;;;;9.02;5.22;;;;;;;21.61;61.53;96329.19;5094317;28;20074;-66
2023/07/08 00:58:33;;;;;;;;;;;;;;;21.61;59.99;96328.34;5094735;28;20040;-66
2023/07/08 01:01:02;;;;;;;5.90;5.10;;;;;;;21.64;61.07;96334.25;5094184;28;19920;-66
2023/07/08 01:03:30;;;;;;;14.20;5.68;;;;;;;21.65;60.21;96325.31;5094346;28;20071;-66
2023/07/08 01:06:00;;;;;;;7.80;5.68;;;;;;;21.67;60.26;96320.66;5094267;28;20052;-66
2023/07/08 01:08:30;;;;;;;6.70;5.77;;;;;;;21.66;60.66;96326.97;5094153;28;20056;-66
2023/07/08 01:11:02;;;;;;;10.15;5.55;;;;;;;21.57;59.83;96330.41;5094304;28;20113;-66
2023/07/08 01:13:34;;;;;;;6.72;5.97;;;;;;;21.66;59.10;96328.78;5093995;28;20040;-66
2023/07/08 01:16:01;;;;;;;10.32;5.47;;;;;;;21.59;60.61;96331.97;5093998;28;20044;-66
2023/07/08 01:18:29;;;;;;;6.93;5.50;;;;;;;21.54;58.95;96339.53;5093950;28;20044;-66
2023/07/08 01:21:06;;;;;;;10.60;5.50;;;;;;;21.60;59.57;96351.44;5093944;28;20048;-66
2023/07/08 01:23:37;;;;;;;6.82;5.20;;;;;;;21.61;59.22;96346.97;5093931;28;20101;-66
2023/07/08 01:26:04;;;;;;;9.18;5.32;;;;;;;21.60;59.46;96351.44;5093922;28;20127;-66
2023/07/08 01:28:32;;;;;;;7.80;5.03;;;;;;;21.58;59.38;96342.75;5093629;28;20136;-65
2023/07/08 01:31:00;;;;;;;9.55;4.68;;;;;;;21.62;59.74;96351.31;5093817;28;20048;-66
2023/07/08 01:33:27;;;;;;;7.25;5.60;;;;;;;21.58;59.79;96348.06;5093789;28;20048;-66
2023/07/08 01:35:55;;;;;;;7.72;5.18;;;;;;;21.53;59.18;96343.16;5093693;28;20144;-66
2023/07/08 01:38:27;;;;;;;10.50;5.07;;;;;;;21.50;59.99;96334.59;5093596;28;20048;-66
2023/07/08 01:40:57;;;;;;;10.40;5.50;;;;;;;21.42;59.80;96333.44;5093654;28;20054;-66
2023/07/08 01:43:25;;;;;;;11.73;5.05;;;;;;;21.40;59.49;96324.72;5093539;28;20489;-66
2023/07/08 01:45:53;;;;;;;7.78;5.78;;;;;;;21.41;60.30;96325.59;5093341;28;20091;-65
2023/07/08 01:48:24;;;;;;;6.85;4.60;;;;;;;21.42;59.99;96327.25;5093407;28;20482;-66
2023/07/08 01:50:52;;;;;;;;;;;;;;;21.42;60.32;96332.59;5093959;28;20048;-66
2023/07/08 01:53:22;;;;;;;7.72;4.55;;;;;;;21.34;60.71;96331.44;5093493;28;19920;-66
2023/07/08 01:55:49;;;;;;;10.82;4.90;;;;;;;21.33;60.94;96336.88;5093437;28;20101;-66
2023/07/08 01:58:18;;;;;;;8.27;5.07;;;;;;;21.35;60.72;96332.28;5093317;28;20048;-66
2023/07/08 02:00:48;;;;;;;7.88;5.00;;;;;;;21.32;61.05;96322.75;5093298;28;20545;-66
2023/07/08 02:03:15;;;;;;;6.25;4.95;;;;;;;21.29;60.67;96332.81;5093380;28;20127;-66
2023/07/08 02:05:42;;;;;;;5.45;4.68;;;;;;;21.28;60.48;96328.47;5093433;28;20090;-66
2023/07/08 02:08:09;;;;;;;7.10;5.80;;;;;;;21.28;61.05;96336.44;5093089;28;20390;-66
2023/07/08 02:10:39;;;;;;;8.45;5.13;;;;;;;21.23;61.28;96328.84;5093285;28;20044;-66
2023/07/08 02:13:06;;;;;;;7.40;4.88;;;;;;;21.20;61.15;96332.59;5093196;28;20438;-66
2023/07/08 02:15:36;;;;;;;6.82;4.85;;;;;;;21.27;61.41;96334.72;5093224;28;20126;-66
2023/07/08 02:18:03;;;;;;;11.40;5.72;;;;;;;21.26;61.72;96323.28;5093474;28;20055;-66
2023/07/08 02:20:30;;;;;;;6.68;5.20;;;;;;;21.25;61.92;96324.22;5093299;28;20040;-66
2023/07/08 02:22:57;;;;;;;7.50;5.43;;;;;;;21.21;62.26;96321.00;5093073;28;20102;-66
2023/07/08 02:25:24;;;;;;;7.72;5.03;;;;;;;21.24;62.32;96327.88;5093078;28;20048;-66
2023/07/08 02:27:54;;;;;;;10.27;5.40;;;;;;;21.25;62.28;96334.03;5092978;28;20048;-65
2023/07/08 02:30:21;;;;;;;6.07;5.10;;;;;;;21.21;62.60;96341.41;5092984;28;20146;-66
2023/07/08 02:32:56;;;;;;;9.45;5.45;;;;;;;21.23;62.56;96346.63;5093002;28;20486;-66
2023/07/08 02:35:25;;;;;;;8.30;5.00;;;;;;;21.20;62.70;96353.03;5093039;28;20052;-66
2023/07/08 02:37:53;;;;;;;9.13;5.28;;;;;;;21.15;62.50;96361.41;5092951;28;20044;-65
2023/07/08 02:40:20;;;;;;;8.20;5.22;;;;;;;21.12;62.79;96366.13;5093091;28;20079;-66
2023/07/08 02:42:47;;;;;;;7.25;5.53;;;;;;;21.12;63.04;96363.47;5096980;28;20105;-66
2023/07/08 02:45:15;;;;;;;7.07;5.80;;;;;;;21.07;63.57;96369.19;5096611;28;20056;-65
2023/07/08 02:47:42;;;;;;;8.00;5.25;;;;;;;21.07;63.18;96370.00;5096836;28;20044;-65
2023/07/08 02:50:11;;;;;;;8.77;5.13;;;;;;;21.02;63.31;96380.22;5096837;28;20047;-66
2023/07/08 02:52:39;;;;;;;6.40;5.10;;;;;;;21.08;63.47;96376.19;5096793;28;20127;-66
2023/07/08 02:55:07;;;;;;;7.18;4.68;;;;;;;21.03;63.00;96384.53;5096817;28;20055;-66
2023/07/08 02:57:34;;;;;;;4.95;4.20;;;;;;;21.07;62.76;96390.47;5096666;28;20051;-65
2023/07/08 03:00:02;;;;;;;7.40;4.20;;;;;;;21.02;61.77;96390.00;5096700;28;20097;-66
2023/07/08 03:02:29;;;;;;;4.93;3.30;;;;;;;20.90;61.10;96390.03;5096756;28;20052;-65
2023/07/08 03:04:58;;;;;;;4.60;3.47;;;;;;;20.82;60.31;96395.09;5096484;28;20048;-66
2023/07/08 03:07:27;;;;;;;4.20;2.92;;;;;;;20.77;59.21;96392.00;5096580;28;20071;-65
2023/07/08 03:09:54;;;;;;;4.65;2.78;;;;;;;20.70;59.27;96388.97;5096356;28;20055;-65
2023/07/08 03:12:21;;;;;;;6.95;2.85;;;;;;;20.68;57.96;96388.28;5096422;28;20056;-66
2023/07/08 03:14:48;;;;;;;5.20;2.80;;;;;;;20.62;57.89;96378.97;5096293;28;20422;-65
2023/07/08 03:17:17;;;;;;;3.80;3.35;;;;;;;20.62;58.56;96375.50;5096291;28;20105;-67
2023/07/08 03:19:44;;;;;;;4.85;3.30;;;;;;;20.52;58.81;96378.03;5096301;28;20130;-66
2023/07/08 03:22:12;;;;;;;5.47;3.35;;;;;;;20.45;59.44;96375.91;5096369;28;20457;-67
2023/07/08 03:24:45;;;;;;;4.80;3.10;;;;;;;20.48;59.04;96376.59;5096220;28;20084;-67
2023/07/08 03:27:14;;;;;;;4.78;3.22;;;;;;;20.42;59.33;96380.59;5096177;28;20048;-67
2023/07/08 03:29:42;;;;;;;5.35;3.55;;;;;;;20.42;59.40;96386.78;5096058;28;20135;-68
2023/07/08 03:32:11;;;;;;;8.88;3.70;;;;;;;20.43;59.83;96385.78;5096065;28;20048;-67
2023/07/08 03:34:39;;;;;;;3.88;3.58;;;;;;;20.42;59.86;96394.75;5095984;28;20152;-67
2023/07/08 03:37:07;;;;;;;4.15;3.75;;;;;;;20.43;60.22;96407.03;5095955;28;20485;-67
2023/07/08 03:39:34;;;;;;;5.13;4.15;;;;;;;20.40;60.03;96404.63;5095838;28;20553;-67
2023/07/08 03:42:03;;;;;;;12.10;3.45;;;;;;;20.41;59.79;96403.66;5095864;28;20044;-67
2023/07/08 03:44:31;;;;;;;7.30;3.70;;;;;;;20.38;59.47;96397.75;5095816;28;20105;-67
2023/07/08 03:46:58;;;;;;;4.68;3.80;;;;;;;20.39;59.86;96402.09;5095481;28;20044;-67
2023/07/08 03:49:25;;;;;;;3.88;3.50;;;;;;;20.29;59.44;96399.34;5095674;28;20048;-67
2023/07/08 03:51:54;;;;;;;4.78;3.00;;;;;;;20.29;58.98;96388.72;5094857;28;20048;-67
2023/07/08 03:54:23;;;;;;;3.20;2.90;;;;;;;20.27;59.13;96385.34;5095149;28;20398;-67
2023/07/08 03:56:51;;;;;;;6.90;3.17;;;;;;;20.28;58.92;96387.88;5095548;28;20055;-67
2023/07/08 03:59:20;;;;;;;3.35;2.75;;;;;;;20.18;58.79;96392.22;5095511;28;20449;-67
2023/07/08 04:01:48;;;;;;;4.47;3.17;;;;;;;20.23;57.33;96386.56;5095355;28;20080;-67
2023/07/08 04:04:16;;;;;;;5.45;3.03;;;;;;;20.18;57.07;96373.66;5095501;28;20040;-67
2023/07/08 04:06:44;;;;;;;5.40;2.47;;;;;;;20.22;56.54;96374.25;5095579;28;20076;-66
2023/07/08 04:09:12;;;;;;;2.90;2.60;;;;;;;20.25;57.62;96377.50;5095391;28;20073;-67
2023/07/08 04:11:39;;;;;;;6.72;2.13;;;;;;;20.27;58.17;96370.25;5095271;28;20105;-67
2023/07/08 04:14:06;;;;;;;5.82;2.67;;;;;;;20.30;59.29;96350.56;5095335;28;20084;-67
2023/07/08 04:16:45;;;;;;;2.95;2.55;;;;;;;20.33;62.55;96353.84;5095264;28;20483;-66
2023/07/08 04:19:14;;;;;;;3.90;2.78;;;;;;;20.36;60.58;96343.91;5095290;28;20501;-67
2023/07/08 04:21:42;;;;;;;3.53;2.63;;;;;;;20.40;59.88;96348.84;5095114;28;20044;-66
2023/07/08 04:24:11;;;;;;;3.03;2.72;;;;;;;20.50;60.86;96358.75;5094992;28;20055;-67
2023/07/08 04:26:39;;;;;;;4.80;2.58;;;;;;;20.58;60.50;96358.94;5095054;28;20583;-67
2023/07/08 04:29:11;;;;;;;3.03;2.53;;;;;;;20.71;60.40;96361.47;5094821;28;20044;-67
2023/07/08 04:31:41;;;;;;;3.63;2.88;;;;;;;20.77;59.38;96370.72;5094855;28;20556;-67
2023/07/08 04:34:10;;;;;;;3.10;2.65;;;;;;;20.92;59.35;96385.44;5094819;28;20040;-66
2023/07/08 04:36:37;;;;;;;2.45;2.08;;;;;;;21.04;59.84;96383.56;5094791;28;20044;-66
2023/07/08 04:39:08;;;;;;;4.30;2.70;;;;;;;21.17;58.84;96398.50;5094778;28;20074;-67
2023/07/08 04:41:40;;;;;;;4.32;2.88;;;;;;;21.19;58.75;96400.06;5094656;28;20051;-67
2023/07/08 04:44:08;;;;;;;5.10;2.60;;;;;;;21.25;59.07;96396.03;5094625;28;20052;-67
2023/07/08 04:46:38;;;;;;;2.88;2.30;;;;;;;21.33;58.37;96406.03;5094416;28;20050;-67
2023/07/08 04:49:09;;;;;;;2.53;2.25;;;;;;;21.39;57.07;96400.19;5094499;28;20048;-66
2023/07/08 04:51:36;;;;;;;;;;;;;;;21.40;57.48;96409.03;5094989;28;20048;-66
2023/07/08 04:54:05;;;;;;;6.07;2.45;;;;;;;21.31;56.84;96408.81;5094487;28;19966;-66
2023/07/08 04:56:40;;;;;;;2.90;2.50;;;;;;;21.30;56.40;96412.47;5094367;28;20440;-67
2023/07/08 04:59:09;;;;;;;2.72;1.80;;;;;;;21.29;56.61;96413.44;5094349;28;20051;-67
2023/07/08 05:01:36;;;;;;;2.85;2.58;;;;;;;21.29;56.94;96407.28;5094223;28;20126;-66
2023/07/08 05:04:04;;;;;;;2.50;2.20;;;;;;;21.37;57.06;96410.13;5093872;28;20410;-67
2023/07/08 05:06:33;;;;;;;4.15;2.55;;;;;;;21.31;57.56;96403.50;5094180;28;20123;-66
2023/07/08 05:09:02;;;;;;;3.85;2.53;;;;;;;21.39;58.74;96399.34;5094083;28;20039;-66
2023/07/08 05:11:29;;;;;;;5.60;2.72;;;;;;;21.46;58.88;96406.69;5094196;28;20473;-66
2023/07/08 05:13:56;;;;;;;3.60;3.30;;;;;;;21.45;60.32;96407.66;5094104;28;20508;-66
2023/07/08 05:16:24;;;;;;;5.65;3.67;;;;;;;21.36;59.85;96412.91;5094026;28;20040;-67
2023/07/08 05:18:52;;;;;;;5.55;4.28;;;;;;;21.42;60.05;96407.91;5094128;28;20051;-66
2023/07/08 05:21:21;;;;;;;7.45;4.40;;;;;;;21.42;61.09;96415.91;5093962;28;20044;-67
2023/07/08 05:23:51;;;;;;;5.65;4.68;;;;;;;21.52;61.60;96407.97;5093919;28;20127;-67
2023/07/08 05:26:18;;;;;;;8.10;4.90;;;;;;;21.58;61.50;96406.59;5093824;28;20044;-67
2023/07/08 05:28:45;;;;;;;9.27;5.22;;;;;;;21.60;60.93;96415.31;5093760;28;20168;-67
2023/07/08 05:31:13;;;;;;;7.28;4.65;;;;;;;21.62;61.20;96413.38;5093872;28;20486;-66
2023/07/08 05:33:41;;;;;;;4.97;4.40;;;;;;;21.72;61.24;96413.41;5093734;28;20075;-67
2023/07/08 05:36:08;;;;;;;9.93;5.50;;;;;;;21.67;61.62;96411.16;5093630;28;20109;-67
2023/07/08 05:38:36;;;;;;;6.80;5.45;;;;;;;21.59;61.98;96409.13;5093551;28;20048;-67
2023/07/08 05:41:04;;;;;;;9.05;4.90;;;;;;;21.61;62.40;96416.16;5093651;28;20044;-67
2023/07/08 05:43:31;;;;;;;5.13;4.63;;;;;;;21.61;62.76;96410.84;5093555;28;20083;-66
2023/07/08 05:46:00;;;;;;;9.63;5.28;;;;;;;21.59;62.79;96403.00;5093296;28;20409;-67
2023/07/08 05:48:27;;;;;;;7.82;5.18;;;;;;;21.58;62.61;96410.13;5093518;28;20550;-67
2023/07/08 05:50:56;;;;;;;6.60;5.53;;;;;;;21.56;62.93;96409.44;5093406;28;20052;-66
2023/07/08 05:53:24;;;;;;;6.30;5.70;;;;;;;21.53;62.97;96414.16;5093594;28;20066;-67
2023/07/08 05:55:51;;;;;;;7.57;6.10;;;;;;;21.49;62.82;96416.22;5093483;28;20048;-66
2023/07/08 05:58:20;;;;;;;6.00;5.40;;;;;;;21.56;62.57;96420.06;5093320;28;20044;-67
2023/07/08 06:00:47;;;;;;;6.47;5.88;;;;;;;21.56;62.73;96413.91;5093263;28;20102;-67
2023/07/08 06:03:15;;;;;;;7.85;5.35;;;;;;;21.64;62.76;96430.03;5093326;28;20052;-67
2023/07/08 06:05:43;;;;;;;8.80;5.05;;;;;;;21.74;61.75;96432.78;5093298;28;20123;-67
2023/07/08 06:08:10;;;;;;;9.10;5.60;;;;;;;21.74;62.70;96429.25;5093257;28;20051;-67
2023/07/08 06:10:44;;;;;;;9.73;5.40;;;;;;;21.78;63.72;96441.34;5093157;28;20051;-67
2023/07/08 06:13:11;;;;;;;9.10;5.75;;;;;;;21.88;62.88;96436.09;5093202;28;20072;-67
2023/07/08 06:15:41;;;;;;;6.25;5.65;;;;;;;21.96;63.37;96442.44;5092357;28;20048;-67
2023/07/08 06:18:08;;;;;;;15.18;5.70;;;;;;;22.12;63.59;96448.28;5093120;28;20101;-67
2023/07/08 06:20:36;;;;;;;8.55;5.95;;;;;;;22.13;62.25;96453.47;5093132;28;20130;-67
2023/07/08 06:23:03;;;;;;;7.13;5.80;;;;;;;22.20;62.49;96451.94;5093115;28;20444;-66
2023/07/08 06:25:31;;;;;;;7.57;5.35;;;;;;;22.16;62.30;96463.84;5093200;28;20047;-67
2023/07/08 06:27:58;;;;;;;7.53;6.03;;;;;;;22.18;61.64;96450.38;5093042;28;20048;-67
2023/07/08 06:30:25;;;;;;;8.50;5.68;;;;;;;22.22;61.25;96452.63;5092917;28;20413;-67
2023/07/08 06:32:54;;;;;;;10.02;5.45;;;;;;;22.21;61.88;96461.63;5093083;28;20093;-66
2023/07/08 06:35:22;;;;;;;4.85;4.43;;;;;;;22.28;60.96;96458.44;5093038;28;20666;-66
2023/07/08 06:37:49;;;;;;;8.60;4.65;;;;;;;22.34;60.95;96469.38;5092968;28;20052;-66
2023/07/08 06:40:19;;;;;;;9.40;5.20;;;;;;;22.45;61.22;96460.44;5092985;28;20055;-66
2023/07/08 06:42:47;;;;;;;8.63;5.13;;;;;;;22.59;60.84;96475.25;5092844;28;20130;-67
2023/07/08 06:45:14;;;;;;;5.97;5.38;;;;;;;22.78;60.03;96484.28;5092745;28;20555;-66
2023/07/08 06:47:42;;;;;;;6.20;4.85;;;;;;;22.93;58.24;96484.72;5092832;28;20048;-66
2023/07/08 06:50:11;;;;;;;6.80;4.82;;;;;;;23.58;58.14;96477.22;5092668;28;20051;-66
2023/07/08 06:52:39;;;;;;;8.80;4.95;;;;;;;23.99;56.51;96487.69;5092839;28;20059;-66
2023/07/08 06:55:09;;;;;;;10.68;5.10;;;;;;;24.21;55.55;96491.88;5092771;28;20051;-66
2023/07/08 06:57:38;;;;;;;6.73;5.17;;;;;;;24.51;54.71;96489.09;5092819;28;20470;-67
2023/07/08 07:00:09;;;;;;;6.18;4.57;;;;;;;25.19;53.34;96491.56;5092677;28;20557;-67
2023/07/08 07:02:38;;;;;;;5.43;4.80;;;;;;;25.83;53.14;96490.63;5092699;28;20123;-66
2023/07/08 07:05:06;;;;;;;5.28;4.57;;;;;;;26.33;50.59;96496.31;5092686;28;20043;-66
2023/07/08 07:07:35;;;;;;;7.25;4.55;;;;;;;26.87;50.27;96492.53;5092864;28;20130;-66
2023/07/08 07:10:02;;;;;;;6.25;4.03;;;;;;;27.36;49.77;96497.19;5092694;28;20087;-67
2023/07/08 07:12:30;;;;;;;8.73;4.40;;;;;;;27.83;47.48;96496.72;5092607;28;20131;-66
2023/07/08 07:14:57;;;;;;;5.68;4.70;;;;;;;28.18;44.88;96504.59;5092606;28;20048;-67
2023/07/08 07:17:26;;;;;;;4.22;3.83;;;;;;;28.38;44.09;96505.06;5092530;28;20048;-67
2023/07/08 07:19:54;;;;;;;4.85;4.30;;;;;;;28.58;43.39;96505.53;5092724;28;20052;-67
2023/07/08 07:22:21;;;;;;;5.75;4.20;;;;;;;28.85;41.97;96510.63;5092652;28;20048;-66
2023/07/08 07:24:50;;;;;;;6.10;4.30;;;;;;;29.21;40.83;96511.97;5092552;28;20413;-67
2023/07/08 07:27:17;;;;;;;5.45;4.25;;;;;;;29.31;41.68;96519.84;5094036;28;20059;-67
2023/07/08 07:29:46;;;;;;;7.50;4.30;;;;;;;29.30;40.68;96515.47;5096010;28;20040;-67
2023/07/08 07:32:14;;;;;;;6.38;4.05;;;;;;;29.38;40.02;96515.44;5096171;28;20044;-67
2023/07/08 07:34:42;;;;;;;4.70;4.00;;;;;;;29.36;41.09;96506.66;5095997;28;20048;-67
2023/07/08 07:37:13;;;;;;;4.90;4.20;;;;;;;29.55;40.32;96509.94;5095939;28;20079;-67
2023/07/08 07:39:40;;;;;;;6.93;3.88;;;;;;;29.87;39.75;96503.47;5096026;28;20406;-67
2023/07/08 07:42:10;;;;;;;4.35;3.95;;;;;;;29.71;39.25;96507.09;5096033;28;20040;-67
2023/07/08 07:44:39;;;;;;;6.30;3.83;;;;;;;29.19;40.40;96511.34;5095869;28;20044;-67
2023/07/08 07:47:08;;;;;;;3.92;3.60;;;;;;;29.12;40.91;96508.50;5095631;28;20143;-67
2023/07/08 07:49:36;;;;;;;7.93;3.92;;;;;;;28.64;41.50;96512.06;5095720;28;20101;-67
2023/07/08 07:52:04;;;;;;;9.52;4.00;;;;;;;28.40;43.59;96512.97;5095738;28;20066;-67
2023/07/08 07:54:31;;;;;;;4.93;3.85;;;;;;;28.19;42.77;96514.31;5095642;28;20055;-67
2023/07/08 07:56:58;;;;;;;6.68;3.67;;;;;;;27.98;42.50;96516.56;5095560;28;20458;-67
2023/07/08 07:59:27;;;;;;;4.38;3.83;;;;;;;27.64;43.53;96525.59;5095485;28;20062;-67
2023/07/08 08:01:54;;;;;;;5.07;4.22;;;;;;;27.36;43.91;96512.47;5095477;28;20048;-67
2023/07/08 08:04:22;;;;;;;7.30;4.20;;;;;;;27.27;44.92;96510.78;5095399;28;20059;-68
2023/07/08 08:06:50;;;;;;;7.18;3.60;;;;;;;27.45;45.61;96513.34;5095371;28;20045;-68
2023/07/08 08:09:17;;;;;;;5.63;4.35;;;;;;;27.43;46.19;96507.28;5095390;28;20099;-67
2023/07/08 08:11:44;;;;;;;4.03;3.67;;;;;;;27.16;45.71;96510.09;5095208;28;20052;-67
2023/07/08 08:14:11;;;;;;;4.25;3.65;;;;;;;27.48;44.86;96511.13;5095306;28;20093;-67
2023/07/08 08:16:40;;;;;;;7.53;3.55;;;;;;;27.92;43.08;96511.00;5095382;28;20422;-68
2023/07/08 08:19:07;;;;;;;6.97;3.40;;;;;;;28.44;44.99;96499.00;5095116;28;20093;-68
2023/07/08 08:21:34;;;;;;;3.95;3.33;;;;;;;28.77;43.02;96506.13;5095172;28;20052;-68
2023/07/08 08:24:02;;;;;;;8.27;3.45;;;;;;;29.01;43.52;96501.66;5095046;28;20055;-68
2023/07/08 08:26:29;;;;;;;4.75;3.13;;;;;;;29.49;43.42;96506.91;5095102;28;20048;-68
2023/07/08 08:28:57;;;;;;;7.97;3.65;;;;;;;29.83;40.83;96504.81;5094947;28;20087;-68
2023/07/08 08:31:25;;;;;;;5.15;3.40;;;;;;;29.76;38.88;96496.63;5094856;28;20054;-68
2023/07/08 08:33:55;;;;;;;5.78;3.33;;;;;;;29.86;40.37;96509.84;5094919;28;20131;-68
2023/07/08 08:36:22;;;;;;;6.10;3.30;;;;;;;30.01;40.09;96498.28;5094877;28;20101;-68
2023/07/08 08:38:50;;;;;;;5.57;3.70;;;;;;;30.01;38.86;96506.38;5093924;28;20555;-68
2023/07/08 08:41:20;;;;;;;4.65;3.08;;;;;;;29.77;39.83;96511.78;5094650;28;20083;-68
2023/07/08 08:43:49;;;;;;;4.22;3.08;;;;;;;29.46;40.53;96518.03;5094726;28;20494;-68
2023/07/08 08:46:28;;;;;;;3.87;3.43;;;;;;;29.87;39.77;96508.00;5094460;28;20044;-68
2023/07/08 08:49:00;;;;;;;4.13;3.28;;;;;;;30.00;40.50;96526.25;5094562;28;20380;-68
2023/07/08 08:51:31;;;;;;;8.05;3.35;;;;;;;29.83;38.80;96517.47;5094426;28;20127;-68
2023/07/08 08:54:00;;;;;;;3.92;3.40;;;;;;;29.59;40.82;96528.25;5094443;28;20048;-68
2023/07/08 08:56:31;;;;;;;10.80;3.95;;;;;;;29.92;39.06;96529.88;5094464;28;20077;-67
2023/07/08 08:59:08;;;;;;;4.35;3.28;;;;;;;29.68;39.38;96533.59;5094383;28;20040;-67
2023/07/08 09:01:36;;;;;;;8.27;3.40;;;;;;;29.49;39.29;96539.25;5094558;28;20056;-68
2023/07/08 09:04:09;;;;;;;7.47;3.80;;;;;;;29.51;39.09;96539.91;5094383;28;20048;-67
2023/07/08 09:06:39;;;;;;;6.53;3.30;;;;;;;29.64;40.49;96536.66;5094430;28;20472;-68
2023/07/08 09:09:16;;;;;;;4.20;3.07;;;;;;;29.86;40.30;96535.97;5094384;28;20094;-68
2023/07/08 09:11:52;;;;;;;3.40;3.10;;;;;;;29.98;39.66;96536.38;5094165;28;20059;-68
2023/07/08 09:14:25;;;;;;;4.57;3.47;;;;;;;29.91;39.43;96522.78;5094119;28;20048;-68
2023/07/08 09:17:07;;;;;;;6.90;3.72;;;;;;;29.87;38.54;96541.19;5093967;28;20472;-68
2023/07/08 09:19:43;;;;;;;4.53;3.50;;;;;;;29.83;38.51;96517.47;5092740;28;20046;-68
2023/07/08 09:22:16;;;;;;;3.30;3.00;;;;;;;29.72;40.42;96530.38;5094084;28;20472;-68
2023/07/08 09:24:51;;;;;;;4.85;3.30;;;;;;;29.63;41.84;96531.44;5094044;28;20048;-67
2023/07/08 09:27:19;;;;;;;6.63;3.65;;;;;;;29.31;39.52;96519.84;5093854;28;20482;-68
2023/07/08 09:29:47;;;;;;;3.65;3.25;;;;;;;29.49;41.91;96530.31;5093705;28;20055;-67
2023/07/08 09:32:19;;;;;;;4.10;3.50;;;;;;;29.43;39.69;96533.75;5093818;28;20044;-68
2023/07/08 09:34:51;;;;;;;5.53;3.58;;;;;;;29.34;39.17;96528.41;5093741;28;20440;-67
2023/07/08 09:37:28;;;;;;;4.70;3.50;;;;;;;29.19;41.95;96522.09;5093746;28;20044;-67
2023/07/08 09:39:57;;;;;;;3.50;3.20;;;;;;;29.27;40.05;96524.75;5093638;28;20044;-68
2023/07/08 09:42:28;;;;;;;3.92;3.53;;;;;;;29.42;39.61;96505.97;5093604;28;20052;-68
2023/07/08 09:44:59;;;;;;;4.82;3.28;;;;;;;29.07;41.59;96505.53;5093492;28;20063;-68
2023/07/08 09:47:28;;;;;;;;;;;;;;;28.82;41.58;96502.91;5093603;28;20056;-68
2023/07/08 09:49:59;;;;;;;9.07;3.95;;;;;;;29.01;42.00;96499.81;5093342;28;19927;-68
2023/07/08 09:52:30;;;;;;;4.15;3.75;;;;;;;28.56;42.93;96502.16;5093475;28;20051;-68
2023/07/08 09:54:58;;;;;;;6.70;3.85;;;;;;;28.38;42.33;96511.28;5093344;28;20044;-67
2023/07/08 09:57:30;;;;;;;4.22;3.80;;;;;;;28.65;42.31;96502.97;5093394;28;20047;-68
2023/07/08 10:00:02;;;;;;;4.35;3.78;;;;;;;28.48;43.54;96518.34;5093389;28;20047;-68
2023/07/08 10:02:36;;;;;;;4.15;3.78;;;;;;;28.20;42.65;96514.16;5093276;28;20050;-67
2023/07/08 10:05:15;;;;;;;6.32;3.80;;;;;;;28.47;43.38;96508.59;5093168;28;20048;-67
2023/07/08 10:07:45;;;;;;;7.70;3.97;;;;;;;28.48;41.85;96513.78;5093293;28;20044;-67
2023/07/08 10:10:18;;;;;;;8.75;4.30;;;;;;;27.99;43.69;96518.22;5093110;28;20050;-68
2023/07/08 10:12:56;;;;;;;5.07;4.68;;;;;;;27.28;44.59;96517.81;5093180;28;20051;-66
2023/07/08 10:15:32;;;;;;;6.18;4.50;;;;;;;27.05;45.04;96518.44;5093203;28;20055;-66
2023/07/08 10:17:59;;;;;;;5.85;4.80;;;;;;;25.90;48.44;96523.81;5093076;28;20058;-66
2023/07/08 10:20:40;;;;;;;6.43;4.78;;;;;;;25.21;51.31;96535.03;5093052;28;20123;-66
2023/07/08 10:23:24;;;;;;;8.35;5.25;;;;;;;24.42;54.53;96532.72;5093120;28;20048;-65
2023/07/08 10:26:01;;;;;;;7.80;6.18;;;;;;;23.88;59.05;96533.25;5093089;28;20048;-66
2023/07/08 10:28:39;;;;;;;7.97;5.40;;;;;;;23.60;60.68;96525.97;5092985;28;20098;-66
2023/07/08 10:31:34;;;;;;;7.30;5.50;;;;;;;23.27;62.47;96523.50;5092926;28;20048;-65
2023/07/08 10:34:17;;;;;;;8.65;6.13;;;;;;;22.91;64.08;96516.00;5092921;28;20513;-65
2023/07/08 10:36:52;;;;;;;7.65;6.20;;;;;;;22.78;66.59;96510.09;5092969;28;20501;-65
2023/07/08 10:39:42;;;;;;;9.13;5.80;;;;;;;22.61;65.51;96511.59;5092898;28;20051;-65
2023/07/08 10:42:19;;;;;;;6.35;4.88;;;;;;;22.43;65.16;96513.00;5092981;28;20127;-65
2023/07/08 10:44:58;;;;;;;6.10;5.03;;;;;;;22.32;66.49;96505.97;5092845;28;20044;-65
2023/07/08 10:47:42;;;;;;;7.47;5.40;;;;;;;22.25;67.28;96502.16;5092680;28;20043;-65
2023/07/08 10:50:31;;;;;;;5.40;4.90;;;;;;;22.20;66.42;96496.38;5092801;28;20086;-65
2023/07/08 10:53:13;;;;;;;7.50;4.50;;;;;;;22.28;66.69;96487.72;5092888;28;20040;-65
2023/07/08 10:55:53;;;;;;;9.15;4.85;;;;;;;22.50;65.58;96497.34;5092761;28;20512;-65
2023/07/08 10:58:45;;;;;;;5.17;4.43;;;;;;;22.64;65.96;96487.34;5092891;28;20040;-65
2023/07/08 11:01:25;;;;;;;6.05;4.47;;;;;;;22.75;64.69;96481.88;5092761;28;20576;-65
2023/07/08 11:04:29;;;;;;;11.43;4.45;;;;;;;22.85;64.21;96485.41;5096694;28;20055;-65
2023/07/08 11:07:01;;;;;;;4.65;4.25;;;;;;;23.04;63.76;96490.91;5096690;28;20052;-65
2023/07/08 11:09:43;;;;;;;7.97;4.55;;;;;;;23.33;66.13;96490.13;5096610;28;20410;-65
2023/07/08 11:12:21;;;;;;;6.10;4.57;;;;;;;23.64;63.57;96498.00;5096430;28;20054;-65
2023/07/08 11:14:53;;;;;;;5.35;4.85;;;;;;;23.39;65.22;96528.78;5096344;28;20512;-65
2023/07/08 11:17:28;;;;;;;5.18;4.30;;;;;;;23.18;66.69;96530.53;5096356;28;20044;-65
2023/07/08 11:20:03;;;;;;;6.63;4.82;;;;;;;23.01;69.73;96529.38;5096320;28;20102;-65
2023/07/08 11:22:35;;;;;;;8.45;5.90;;;;;;;22.88;68.11;96552.78;5096392;28;20055;-65
2023/07/08 11:25:17;;;;;;;6.95;5.28;;;;;;;22.75;70.84;96567.19;5096183;28;20048;-65
2023/07/08 11:27:47;;;;;;;6.28;5.35;;;;;;;22.15;68.33;96562.53;5096237;28;20040;-65
2023/07/08 11:30:17;;;;;;;4.68;4.28;;;;;;;21.49;71.95;96564.38;5096148;28;20076;-65
2023/07/08 11:33:03;;;;;;;6.07;4.55;;;;;;;21.34;72.19;96565.50;5096047;28;20052;-66
2023/07/08 11:35:48;;;;;;;9.10;5.72;;;;;;;21.21;74.12;96563.00;5096109;28;20404;-66
2023/07/08 11:38:19;;;;;;;6.55;4.97;;;;;;;21.12;74.16;96560.22;5095995;28;20561;-66
2023/07/08 11:41:01;;;;;;;5.60;4.85;;;;;;;20.91;76.72;96548.56;5095963;28;20090;-65
2023/07/08 11:43:38;;;;;;;7.95;5.68;;;;;;;20.88;77.19;96545.25;5095917;28;20040;-66
2023/07/08 11:46:08;;;;;;;6.68;4.28;;;;;;;20.69;76.12;96544.09;5095584;28;20494;-66
2023/07/08 11:48:46;;;;;;;7.80;4.55;;;;;;;20.73;77.53;96542.88;5095761;28;20054;-66